Time,TemperatureF,DewpointF,PressureIn,WindDirection,WindDirectionDegrees,WindSpeedMPH,WindSpeedGustMPH,Humidity,HourlyPrecipIn,Conditions,Clouds,dailyrainin,SoftwareType,DateUTC
2013-02-15 00:00:00,47.2,21.6,30.56,NW,322,3.0,3.0,36,0.00,,,0.00,Wunderground v.1.15,2013-02-15 08:00:00,
2013-02-15 00:10:00,46.7,21.8,30.56,NNW,341,2.0,6.0,37,0.00,,,0.00,Wunderground v.1.15,2013-02-15 08:10:00,
2013-02-15 00:15:00,46.8,21.9,30.56,NNW,327,3.0,6.0,37,0.00,,,0.00,Wunderground v.1.15,2013-02-15 08:15:00,
2013-02-15 00:20:00,47.8,22.1,30.56,NNW,333,5.0,5.0,36,0.00,,,0.00,Wunderground v.1.15,2013-02-15 08:20:00,
2013-02-15 00:30:00,48.1,21.7,30.56,NNW,332,6.0,6.0,35,0.00,,,0.00,Wunderground v.1.15,2013-02-15 08:30:00,
2013-02-15 00:35:00,47.9,21.5,30.56,NW,325,6.0,11.0,35,0.00,,,0.00,Wunderground v.1.15,2013-02-15 08:35:00,
2013-02-15 00:45:00,47.4,21.7,30.56,NNW,341,5.0,11.0,36,0.00,,,0.00,Wunderground v.1.15,2013-02-15 08:45:00,
2013-02-15 00:50:00,47.4,21.7,30.55,NNW,331,5.0,5.0,36,0.00,,,0.00,Wunderground v.1.15,2013-02-15 08:50:00,
2013-02-15 00:55:00,47.4,21.7,30.56,NNW,336,4.0,11.0,36,0.00,,,0.00,Wunderground v.1.15,2013-02-15 08:55:00,
2013-02-15 01:00:00,47.4,21.7,30.56,NNW,333,4.0,4.0,36,0.00,,,0.00,Wunderground v.1.15,2013-02-15 09:00:00,
2013-02-15 01:10:00,47.0,21.4,30.56,NNW,333,3.0,3.0,36,0.00,,,0.00,Wunderground v.1.15,2013-02-15 09:10:00,
2013-02-15 01:15:00,47.0,22.0,30.55,NNW,328,3.0,5.0,37,0.00,,,0.00,Wunderground v.1.15,2013-02-15 09:15:00,
2013-02-15 01:20:00,46.9,22.0,30.55,NNW,329,4.0,4.0,37,0.00,,,0.00,Wunderground v.1.15,2013-02-15 09:20:00,
2013-02-15 01:30:00,46.7,21.8,30.55,NNW,327,4.0,10.0,37,0.00,,,0.00,Wunderground v.1.15,2013-02-15 09:30:00,
2013-02-15 01:35:00,46.5,22.2,30.55,NNW,334,3.0,10.0,38,0.00,,,0.00,Wunderground v.1.15,2013-02-15 09:35:00,
2013-02-15 01:45:00,46.3,22.0,30.55,NNW,334,2.0,8.0,38,0.00,,,0.00,Wunderground v.1.15,2013-02-15 09:45:00,
2013-02-15 01:50:00,46.3,22.0,30.55,NNW,333,1.0,8.0,38,0.00,,,0.00,Wunderground v.1.15,2013-02-15 09:50:00,
2013-02-15 01:55:00,46.3,22.0,30.55,NNW,333,1.0,8.0,38,0.00,,,0.00,Wunderground v.1.15,2013-02-15 09:55:00,
2013-02-15 02:00:00,46.1,21.9,30.55,NNW,333,0.0,8.0,38,0.00,,,0.00,Wunderground v.1.15,2013-02-15 10:00:00,
2013-02-15 02:05:00,46.0,21.8,30.55,NNW,335,1.0,8.0,38,0.00,,,0.00,Wunderground v.1.15,2013-02-15 10:05:00,
2013-02-15 02:15:00,46.2,22.0,30.55,NNW,332,2.0,4.0,38,0.00,,,0.00,Wunderground v.1.15,2013-02-15 10:15:00,
2013-02-15 02:20:00,46.3,22.0,30.55,NNW,332,4.0,8.0,38,0.00,,,0.00,Wunderground v.1.15,2013-02-15 10:20:00,
2013-02-15 02:30:00,46.0,22.4,30.54,NNW,342,4.0,4.0,39,0.00,,,0.00,Wunderground v.1.15,2013-02-15 10:30:00,
2013-02-15 02:35:00,46.0,22.4,30.54,NNW,336,3.0,9.0,39,0.00,,,0.00,Wunderground v.1.15,2013-02-15 10:35:00,
2013-02-15 02:45:00,45.8,22.2,30.55,NNW,334,1.0,9.0,39,0.00,,,0.00,Wunderground v.1.15,2013-02-15 10:45:00,
2013-02-15 02:55:00,45.5,22.5,30.54,NNW,334,0.0,9.0,40,0.00,,,0.00,Wunderground v.1.15,2013-02-15 10:55:00,
2013-02-15 03:00:00,45.5,22.5,30.54,NNW,335,0.0,9.0,40,0.00,,,0.00,Wunderground v.1.15,2013-02-15 11:00:00,
2013-02-15 03:05:00,45.6,22.0,30.54,NNW,334,0.0,9.0,39,0.00,,,0.00,Wunderground v.1.15,2013-02-15 11:05:00,
2013-02-15 03:15:00,45.8,22.2,30.54,NNW,327,2.0,6.0,39,0.00,,,0.00,Wunderground v.1.15,2013-02-15 11:15:00,
2013-02-15 03:20:00,46.0,22.4,30.54,NW,306,3.0,3.0,39,0.00,,,0.00,Wunderground v.1.15,2013-02-15 11:20:00,
2013-02-15 03:30:00,46.9,22.0,30.54,NNW,327,5.0,5.0,37,0.00,,,0.00,Wunderground v.1.15,2013-02-15 11:30:00,
2013-02-15 03:35:00,46.6,22.3,30.54,NW,317,4.0,10.0,38,0.00,,,0.00,Wunderground v.1.15,2013-02-15 11:35:00,
2013-02-15 03:45:00,47.4,22.4,30.54,NW,313,6.0,10.0,37,0.00,,,0.00,Wunderground v.1.15,2013-02-15 11:45:00,
2013-02-15 03:50:00,47.3,22.3,30.54,NW,325,7.0,7.0,37,0.00,,,0.00,Wunderground v.1.15,2013-02-15 11:50:00,
2013-02-15 03:55:00,46.6,22.3,30.55,NNW,331,5.0,10.0,38,0.00,,,0.00,Wunderground v.1.15,2013-02-15 11:55:00,
2013-02-15 04:00:00,46.1,21.9,30.55,NW,318,3.0,3.0,38,0.00,,,0.00,Wunderground v.1.15,2013-02-15 12:00:00,
2013-02-15 04:10:00,45.8,22.2,30.55,NNW,329,2.0,2.0,39,0.00,,,0.00,Wunderground v.1.15,2013-02-15 12:10:00,
2013-02-15 04:15:00,45.9,22.3,30.55,NW,318,4.0,4.0,39,0.00,,,0.00,Wunderground v.1.15,2013-02-15 12:15:00,
2013-02-15 04:25:00,47.6,22.6,30.55,NW,323,6.0,14.0,37,0.00,,,0.00,Wunderground v.1.15,2013-02-15 12:25:00,
2013-02-15 04:35:00,48.4,22.0,30.55,NNW,329,8.0,17.0,35,0.00,,,0.00,Wunderground v.1.15,2013-02-15 12:35:00,
2013-02-15 04:45:00,48.0,22.3,30.56,NW,321,7.0,17.0,36,0.00,,,0.00,Wunderground v.1.15,2013-02-15 12:45:00,
2013-02-15 04:50:00,47.1,22.1,30.56,North,351,3.0,3.0,37,0.00,,,0.00,Wunderground v.1.15,2013-02-15 12:50:00,
2013-02-15 04:55:00,46.2,22.0,30.56,NE,53,1.0,17.0,38,0.00,,,0.00,Wunderground v.1.15,2013-02-15 12:55:00,
2013-02-15 05:00:00,45.6,22.0,30.56,NNE,27,1.0,17.0,39,0.00,,,0.00,Wunderground v.1.15,2013-02-15 13:00:00,
2013-02-15 05:05:00,45.1,21.6,30.56,NNE,13,0.0,17.0,39,0.00,,,0.00,Wunderground v.1.15,2013-02-15 13:05:00,
2013-02-15 05:15:00,46.2,21.3,30.56,NW,316,3.0,15.0,37,0.00,,,0.00,Wunderground v.1.15,2013-02-15 13:15:00,
2013-02-15 05:20:00,47.1,21.5,30.57,NW,323,5.0,5.0,36,0.00,,,0.00,Wunderground v.1.15,2013-02-15 13:20:00,
2013-02-15 05:30:00,46.9,21.3,30.57,WNW,294,5.0,15.0,36,0.00,,,0.00,Wunderground v.1.15,2013-02-15 13:30:00,
2013-02-15 05:35:00,47.9,20.8,30.57,WNW,299,7.0,17.0,34,0.00,,,0.00,Wunderground v.1.15,2013-02-15 13:35:00,
2013-02-15 05:45:00,48.3,20.5,30.57,NW,323,7.0,17.0,33,0.00,,,0.00,Wunderground v.1.15,2013-02-15 13:45:00,
2013-02-15 05:50:00,48.3,20.5,30.57,WNW,285,7.0,7.0,33,0.00,,,0.00,Wunderground v.1.15,2013-02-15 13:50:00,
2013-02-15 06:00:00,47.0,20.7,30.57,NW,315,6.0,6.0,35,0.00,,,0.00,Wunderground v.1.15,2013-02-15 14:00:00,
2013-02-15 06:05:00,47.1,20.8,30.58,NNW,346,6.0,12.0,35,0.00,,,0.00,Wunderground v.1.15,2013-02-15 14:05:00,
2013-02-15 06:15:00,47.8,20.8,30.58,WNW,297,9.0,9.0,34,0.00,,,0.00,Wunderground v.1.15,2013-02-15 14:15:00,
2013-02-15 06:20:00,47.4,20.4,30.58,NW,324,7.0,7.0,34,0.00,,,0.00,Wunderground v.1.15,2013-02-15 14:20:00,
2013-02-15 06:25:00,47.2,20.2,30.58,NW,313,7.0,16.0,34,0.00,,,0.00,Wunderground v.1.15,2013-02-15 14:25:00,
2013-02-15 06:35:00,46.4,20.2,30.58,NW,317,6.0,16.0,35,0.00,,,0.00,Wunderground v.1.15,2013-02-15 14:35:00,
2013-02-15 06:40:00,46.1,19.9,30.58,NW,325,5.0,16.0,35,0.00,,,0.00,Wunderground v.1.15,2013-02-15 14:40:00,
2013-02-15 06:45:00,46.6,19.7,30.59,NW,321,5.0,16.0,34,0.00,,,0.00,Wunderground v.1.15,2013-02-15 14:45:00,
2013-02-15 06:50:00,47.0,20.0,30.59,NW,316,5.0,5.0,34,0.00,,,0.00,Wunderground v.1.15,2013-02-15 14:50:00,
2013-02-15 07:00:00,47.3,19.6,30.59,NW,320,6.0,16.0,33,0.00,,,0.00,Wunderground v.1.15,2013-02-15 15:00:00,
2013-02-15 07:10:00,47.1,20.1,30.60,NNW,333,6.0,6.0,34,0.00,,,0.00,Wunderground v.1.15,2013-02-15 15:10:00,
2013-02-15 07:15:00,47.2,20.2,30.60,NW,322,6.0,17.0,34,0.00,,,0.00,Wunderground v.1.15,2013-02-15 15:15:00,
2013-02-15 07:20:00,47.4,20.4,30.60,NW,321,6.0,17.0,34,0.00,,,0.00,Wunderground v.1.15,2013-02-15 15:20:00,
2013-02-15 07:30:00,48.5,19.9,30.60,NNW,346,7.0,7.0,32,0.00,,,0.00,Wunderground v.1.15,2013-02-15 15:30:00,
2013-02-15 07:35:00,49.1,19.7,30.60,NNW,335,8.0,8.0,31,0.00,,,0.00,Wunderground v.1.15,2013-02-15 15:35:00,
2013-02-15 07:40:00,49.3,19.9,30.60,NNW,330,7.0,7.0,31,0.00,,,0.00,Wunderground v.1.15,2013-02-15 15:40:00,
2013-02-15 07:45:00,49.5,20.1,30.60,NNW,329,8.0,10.0,31,0.00,,,0.00,Wunderground v.1.15,2013-02-15 15:45:00,
2013-02-15 07:55:00,50.1,19.8,30.61,WNW,301,9.0,15.0,30,0.00,,,0.00,Wunderground v.1.15,2013-02-15 15:55:00,
2013-02-15 08:00:00,50.3,20.0,30.61,NNW,329,10.0,15.0,30,0.00,,,0.00,Wunderground v.1.15,2013-02-15 16:00:00,
2013-02-15 08:05:00,50.6,19.5,30.61,NNW,341,10.0,15.0,29,0.00,,,0.00,Wunderground v.1.15,2013-02-15 16:05:00,
2013-02-15 08:15:00,51.0,19.8,30.61,NW,316,11.0,11.0,29,0.00,,,0.00,Wunderground v.1.15,2013-02-15 16:15:00,
2013-02-15 08:20:00,51.2,19.2,30.62,NNW,331,11.0,15.0,28,0.00,,,0.00,Wunderground v.1.15,2013-02-15 16:20:00,
2013-02-15 08:30:00,51.6,19.5,30.62,NW,325,13.0,13.0,28,0.00,,,0.00,Wunderground v.1.15,2013-02-15 16:30:00,
2013-02-15 08:35:00,52.2,18.3,30.63,WNW,287,12.0,18.0,26,0.00,,,0.00,Wunderground v.1.15,2013-02-15 16:35:00,
2013-02-15 08:40:00,52.4,18.5,30.63,WNW,300,12.0,18.0,26,0.00,,,0.00,Wunderground v.1.15,2013-02-15 16:40:00,
2013-02-15 08:50:00,53.0,18.1,30.63,WNW,303,11.0,18.0,25,0.00,,,0.00,Wunderground v.1.15,2013-02-15 16:50:00,
2013-02-15 09:00:00,53.3,18.3,30.63,NW,318,12.0,12.0,25,0.00,,,0.00,Wunderground v.1.15,2013-02-15 17:00:00,
2013-02-15 09:05:00,53.3,18.3,30.63,WNW,302,12.0,21.0,25,0.00,,,0.00,Wunderground v.1.15,2013-02-15 17:05:00,
2013-02-15 09:15:00,52.9,18.0,30.63,NW,313,13.0,21.0,25,0.00,,,0.00,Wunderground v.1.15,2013-02-15 17:15:00,
2013-02-15 09:20:00,53.0,18.1,30.63,NW,310,11.0,21.0,25,0.00,,,0.00,Wunderground v.1.15,2013-02-15 17:20:00,
2013-02-15 09:30:00,53.2,18.2,30.63,NW,325,12.0,21.0,25,0.00,,,0.00,Wunderground v.1.15,2013-02-15 17:30:00,
2013-02-15 09:35:00,53.4,18.4,30.63,NW,316,12.0,21.0,25,0.00,,,0.00,Wunderground v.1.15,2013-02-15 17:35:00,
2013-02-15 09:45:00,53.7,17.7,30.63,NNW,334,11.0,20.0,24,0.00,,,0.00,Wunderground v.1.15,2013-02-15 17:45:00,
2013-02-15 09:50:00,53.8,17.8,30.63,NW,318,11.0,11.0,24,0.00,,,0.00,Wunderground v.1.15,2013-02-15 17:50:00,
2013-02-15 10:00:00,54.1,18.1,30.64,NW,318,11.0,11.0,24,0.00,,,0.00,Wunderground v.1.15,2013-02-15 18:00:00,
2013-02-15 10:05:00,54.6,18.5,30.64,WNW,291,10.0,19.0,24,0.00,,,0.00,Wunderground v.1.15,2013-02-15 18:05:00,
2013-02-15 10:10:00,54.2,18.1,30.64,NW,323,11.0,11.0,24,0.00,,,0.00,Wunderground v.1.15,2013-02-15 18:10:00,
2013-02-15 10:15:00,54.8,17.7,30.64,NNW,336,11.0,19.0,23,0.00,,,0.00,Wunderground v.1.15,2013-02-15 18:15:00,
2013-02-15 10:20:00,55.3,18.1,30.64,NW,323,9.0,19.0,23,0.00,,,0.00,Wunderground v.1.15,2013-02-15 18:20:00,
2013-02-15 10:30:00,55.2,17.0,30.64,WNW,302,10.0,10.0,22,0.00,,,0.00,Wunderground v.1.15,2013-02-15 18:30:00,
2013-02-15 10:35:00,55.7,17.4,30.64,NNW,339,11.0,11.0,22,0.00,,,0.00,Wunderground v.1.15,2013-02-15 18:35:00,
2013-02-15 10:45:00,55.4,16.1,30.64,NNW,340,11.0,18.0,21,0.00,,,0.00,Wunderground v.1.15,2013-02-15 18:45:00,
2013-02-15 10:50:00,55.8,17.5,30.64,NW,317,11.0,18.0,22,0.00,,,0.00,Wunderground v.1.15,2013-02-15 18:50:00,
2013-02-15 10:55:00,55.7,16.3,30.64,NW,325,10.0,18.0,21,0.00,,,0.00,Wunderground v.1.15,2013-02-15 18:55:00,
2013-02-15 11:05:00,55.8,17.5,30.65,WNW,291,9.0,18.0,22,0.00,,,0.00,Wunderground v.1.15,2013-02-15 19:05:00,
2013-02-15 11:10:00,55.9,17.6,30.65,NW,312,9.0,18.0,22,0.00,,,0.00,Wunderground v.1.15,2013-02-15 19:10:00,
2013-02-15 11:20:00,56.0,17.6,30.64,NNW,348,10.0,10.0,22,0.00,,,0.00,Wunderground v.1.15,2013-02-15 19:20:00,
2013-02-15 11:30:00,56.1,16.6,30.64,NNW,337,10.0,18.0,21,0.00,,,0.00,Wunderground v.1.15,2013-02-15 19:30:00,
2013-02-15 11:35:00,56.4,16.9,30.64,WNW,297,11.0,18.0,21,0.00,,,0.00,Wunderground v.1.15,2013-02-15 19:35:00,
2013-02-15 11:45:00,56.7,17.1,30.64,NNW,331,9.0,18.0,21,0.00,,,0.00,Wunderground v.1.15,2013-02-15 19:45:00,
2013-02-15 11:50:00,57.2,17.6,30.64,NNW,331,9.0,18.0,21,0.00,,,0.00,Wunderground v.1.15,2013-02-15 19:50:00,
2013-02-15 11:55:00,57.3,17.6,30.63,NW,325,8.0,18.0,21,0.00,,,0.00,Wunderground v.1.15,2013-02-15 19:55:00,
2013-02-15 12:00:00,57.2,16.4,30.63,NNW,341,8.0,8.0,20,0.00,,,0.00,Wunderground v.1.15,2013-02-15 20:00:00,
2013-02-15 12:10:00,57.4,16.6,30.63,NNW,341,8.0,18.0,20,0.00,,,0.00,Wunderground v.1.15,2013-02-15 20:10:00,
2013-02-15 12:15:00,57.7,15.7,30.63,NNW,331,9.0,18.0,19,0.00,,,0.00,Wunderground v.1.15,2013-02-15 20:15:00,
2013-02-15 12:20:00,57.5,15.5,30.62,NNW,334,10.0,10.0,19,0.00,,,0.00,Wunderground v.1.15,2013-02-15 20:20:00,
2013-02-15 12:30:00,57.7,15.7,30.62,North,360,8.0,8.0,19,0.00,,,0.00,Wunderground v.1.15,2013-02-15 20:30:00,
2013-02-15 12:35:00,57.8,14.5,30.62,NNW,348,8.0,16.0,18,0.00,,,0.00,Wunderground v.1.15,2013-02-15 20:35:00,
2013-02-15 12:45:00,58.0,15.9,30.62,NNW,337,8.0,16.0,19,0.00,,,0.00,Wunderground v.1.15,2013-02-15 20:45:00,
2013-02-15 12:50:00,58.0,14.7,30.61,NNW,327,8.0,8.0,18,0.00,,,0.00,Wunderground v.1.15,2013-02-15 20:50:00,
2013-02-15 12:55:00,58.3,14.9,30.61,North,353,8.0,16.0,18,0.00,,,0.00,Wunderground v.1.15,2013-02-15 20:55:00,
2013-02-15 13:05:00,58.9,14.1,30.61,NNW,337,7.0,10.0,17,0.00,,,0.00,Wunderground v.1.15,2013-02-15 21:05:00,
2013-02-15 13:10:00,58.6,13.9,30.60,North,4,7.0,16.0,17,0.00,,,0.00,Wunderground v.1.15,2013-02-15 21:10:00,
2013-02-15 13:15:00,58.4,13.7,30.60,NNW,345,8.0,16.0,17,0.00,,,0.00,Wunderground v.1.15,2013-02-15 21:15:00,
2013-02-15 13:20:00,58.5,13.8,30.60,North,1,7.0,7.0,17,0.00,,,0.00,Wunderground v.1.15,2013-02-15 21:20:00,
2013-02-15 13:30:00,58.4,13.7,30.60,NNW,337,7.0,7.0,17,0.00,,,0.00,Wunderground v.1.15,2013-02-15 21:30:00,
2013-02-15 13:35:00,58.7,12.6,30.60,North,352,7.0,10.0,16,0.00,,,0.00,Wunderground v.1.15,2013-02-15 21:35:00,
2013-02-15 13:45:00,58.6,13.9,30.60,NNW,335,6.0,15.0,17,0.00,,,0.00,Wunderground v.1.15,2013-02-15 21:45:00,
2013-02-15 13:50:00,58.6,13.9,30.60,NNW,327,6.0,15.0,17,0.00,,,0.00,Wunderground v.1.15,2013-02-15 21:50:00,
2013-02-15 13:55:00,58.8,14.0,30.60,NNE,26,8.0,15.0,17,0.00,,,0.00,Wunderground v.1.15,2013-02-15 21:55:00,
2013-02-15 14:05:00,59.2,14.3,30.60,NNE,31,6.0,15.0,17,0.00,,,0.00,Wunderground v.1.15,2013-02-15 22:05:00,
2013-02-15 14:10:00,59.4,14.5,30.60,North,8,5.0,14.0,17,0.00,,,0.00,Wunderground v.1.15,2013-02-15 22:10:00,
2013-02-15 14:15:00,59.0,14.2,30.59,NNW,339,5.0,14.0,17,0.00,,,0.00,Wunderground v.1.15,2013-02-15 22:15:00,
2013-02-15 14:20:00,59.0,14.2,30.59,NW,316,7.0,14.0,17,0.00,,,0.00,Wunderground v.1.15,2013-02-15 22:20:00,
2013-02-15 14:30:00,59.1,12.9,30.59,NNW,331,8.0,14.0,16,0.00,,,0.00,Wunderground v.1.15,2013-02-15 22:30:00,
2013-02-15 14:35:00,59.0,12.8,30.59,NW,319,7.0,14.0,16,0.00,,,0.00,Wunderground v.1.15,2013-02-15 22:35:00,
2013-02-15 14:45:00,59.1,12.9,30.59,NW,325,7.0,14.0,16,0.00,,,0.00,Wunderground v.1.15,2013-02-15 22:45:00,
2013-02-15 14:50:00,59.2,13.0,30.58,NW,304,7.0,14.0,16,0.00,,,0.00,Wunderground v.1.15,2013-02-15 22:50:00,
2013-02-15 15:00:00,59.4,13.1,30.58,NNW,330,8.0,14.0,16,0.00,,,0.00,Wunderground v.1.15,2013-02-15 23:00:00,
2013-02-15 15:10:00,59.6,13.3,30.58,NW,323,7.0,7.0,16,0.00,,,0.00,Wunderground v.1.15,2013-02-15 23:10:00,
2013-02-15 15:15:00,59.6,13.3,30.58,NW,318,7.0,16.0,16,0.00,,,0.00,Wunderground v.1.15,2013-02-15 23:15:00,
2013-02-15 15:20:00,59.8,13.4,30.58,NNW,346,8.0,16.0,16,0.00,,,0.00,Wunderground v.1.15,2013-02-15 23:20:00,
2013-02-15 15:25:00,59.7,13.4,30.58,NNW,335,7.0,16.0,16,0.00,,,0.00,Wunderground v.1.15,2013-02-15 23:25:00,
2013-02-15 15:30:00,59.8,13.4,30.58,NW,304,6.0,16.0,16,0.00,,,0.00,Wunderground v.1.15,2013-02-15 23:30:00,
2013-02-15 15:35:00,59.8,13.4,30.58,NNW,348,6.0,16.0,16,0.00,,,0.00,Wunderground v.1.15,2013-02-15 23:35:00,
2013-02-15 15:45:00,59.0,12.8,30.58,NNW,348,6.0,14.0,16,0.00,,,0.00,Wunderground v.1.15,2013-02-15 23:45:00,
2013-02-15 15:50:00,58.9,12.7,30.58,NW,316,5.0,5.0,16,0.00,,,0.00,Wunderground v.1.15,2013-02-15 23:50:00,
2013-02-15 16:00:00,59.1,12.9,30.58,NW,325,4.0,14.0,16,0.00,,,0.00,Wunderground v.1.15,2013-02-16 00:00:00,
2013-02-15 16:05:00,59.0,14.2,30.58,NNW,348,4.0,14.0,17,0.00,,,0.00,Wunderground v.1.15,2013-02-16 00:05:00,
2013-02-15 16:15:00,58.8,14.0,30.58,NNW,346,5.0,12.0,17,0.00,,,0.00,Wunderground v.1.15,2013-02-16 00:15:00,
2013-02-15 16:20:00,58.8,14.0,30.58,NNW,332,4.0,4.0,17,0.00,,,0.00,Wunderground v.1.15,2013-02-16 00:20:00,
2013-02-15 16:25:00,58.8,14.0,30.58,NNW,327,4.0,5.0,17,0.00,,,0.00,Wunderground v.1.15,2013-02-16 00:25:00,
2013-02-15 16:30:00,58.8,14.0,30.58,NNW,328,4.0,12.0,17,0.00,,,0.00,Wunderground v.1.15,2013-02-16 00:30:00,
2013-02-15 16:35:00,58.7,13.9,30.59,NNW,328,5.0,12.0,17,0.00,,,0.00,Wunderground v.1.15,2013-02-16 00:35:00,
2013-02-15 16:45:00,58.4,13.7,30.58,NNW,327,6.0,9.0,17,0.00,,,0.00,Wunderground v.1.15,2013-02-16 00:45:00,
2013-02-15 16:50:00,58.3,13.6,30.59,NNW,344,4.0,4.0,17,0.00,,,0.00,Wunderground v.1.15,2013-02-16 00:50:00,
2013-02-15 17:00:00,57.8,14.5,30.59,NNW,344,0.0,9.0,18,0.00,,,0.00,Wunderground v.1.15,2013-02-16 01:00:00,
2013-02-15 17:10:00,57.3,14.1,30.59,NNW,344,0.0,10.0,18,0.00,,,0.00,Wunderground v.1.15,2013-02-16 01:10:00,
2013-02-15 17:15:00,57.0,13.8,30.59,NNW,344,0.0,10.0,18,0.00,,,0.00,Wunderground v.1.15,2013-02-16 01:15:00,
2013-02-15 17:20:00,56.7,14.8,30.59,NNW,344,0.0,10.0,19,0.00,,,0.00,Wunderground v.1.15,2013-02-16 01:20:00,
2013-02-15 17:30:00,56.1,14.3,30.59,NNW,344,0.0,10.0,19,0.00,,,0.00,Wunderground v.1.15,2013-02-16 01:30:00,
2013-02-15 17:35:00,55.8,14.1,30.60,NNW,344,0.0,10.0,19,0.00,,,0.00,Wunderground v.1.15,2013-02-16 01:35:00,
2013-02-15 17:45:00,55.1,13.5,30.60,NNW,344,0.0,0.0,19,0.00,,,0.00,Wunderground v.1.15,2013-02-16 01:45:00,
2013-02-15 17:50:00,54.4,14.1,30.60,NNW,344,0.0,0.0,20,0.00,,,0.00,Wunderground v.1.15,2013-02-16 01:50:00,
2013-02-15 17:55:00,53.9,13.7,30.60,NNW,344,0.0,0.0,20,0.00,,,0.00,Wunderground v.1.15,2013-02-16 01:55:00,
2013-02-15 18:05:00,53.3,14.3,30.60,NNE,17,0.0,3.0,21,0.00,,,0.00,Wunderground v.1.15,2013-02-16 02:05:00,
2013-02-15 18:15:00,53.2,14.2,30.60,NNE,17,0.0,3.0,21,0.00,,,0.00,Wunderground v.1.15,2013-02-16 02:15:00,
2013-02-15 18:20:00,53.5,14.5,30.60,NNE,17,0.0,3.0,21,0.00,,,0.00,Wunderground v.1.15,2013-02-16 02:20:00,
2013-02-15 18:30:00,53.0,14.0,30.61,NNE,17,0.0,3.0,21,0.00,,,0.00,Wunderground v.1.15,2013-02-16 02:30:00,
2013-02-15 18:35:00,52.8,14.9,30.61,NNE,17,0.0,4.0,22,0.00,,,0.00,Wunderground v.1.15,2013-02-16 02:35:00,
2013-02-15 18:45:00,51.4,14.8,30.61,NNE,17,0.0,4.0,23,0.00,,,0.00,Wunderground v.1.15,2013-02-16 02:45:00,
2013-02-15 18:55:00,51.0,15.4,30.61,NNE,17,0.0,4.0,24,0.00,,,0.00,Wunderground v.1.15,2013-02-16 02:55:00,
2013-02-15 19:00:00,51.5,14.9,30.61,NNE,17,0.0,4.0,23,0.00,,,0.00,Wunderground v.1.15,2013-02-16 03:00:00,
2013-02-15 19:05:00,51.6,15.0,30.61,NNE,17,0.0,4.0,23,0.00,,,0.00,Wunderground v.1.15,2013-02-16 03:05:00,
2013-02-15 19:15:00,51.8,15.1,30.61,NNE,17,0.0,0.0,23,0.00,,,0.00,Wunderground v.1.15,2013-02-16 03:15:00,
2013-02-15 19:20:00,51.9,15.2,30.62,NNE,17,0.0,0.0,23,0.00,,,0.00,Wunderground v.1.15,2013-02-16 03:20:00,
2013-02-15 19:30:00,51.9,15.2,30.62,NNE,17,0.0,0.0,23,0.00,,,0.00,Wunderground v.1.15,2013-02-16 03:30:00,
2013-02-15 19:35:00,52.0,15.3,30.62,NNE,17,0.0,2.0,23,0.00,,,0.00,Wunderground v.1.15,2013-02-16 03:35:00,
2013-02-15 19:40:00,52.1,15.4,30.62,NNE,17,0.0,2.0,23,0.00,,,0.00,Wunderground v.1.15,2013-02-16 03:40:00,
2013-02-15 19:50:00,51.9,16.2,30.62,NNE,17,0.0,2.0,24,0.00,,,0.00,Wunderground v.1.15,2013-02-16 03:50:00,
2013-02-15 20:00:00,51.7,16.0,30.62,NNE,17,0.0,2.0,24,0.00,,,0.00,Wunderground v.1.15,2013-02-16 04:00:00,
2013-02-15 20:05:00,51.5,15.8,30.62,NNE,17,0.0,2.0,24,0.00,,,0.00,Wunderground v.1.15,2013-02-16 04:05:00,
2013-02-15 20:15:00,51.9,16.2,30.62,NNE,17,0.0,2.0,24,0.00,,,0.00,Wunderground v.1.15,2013-02-16 04:15:00,
2013-02-15 20:20:00,52.3,15.5,30.63,NNE,17,0.0,2.0,23,0.00,,,0.00,Wunderground v.1.15,2013-02-16 04:20:00,
2013-02-15 20:30:00,52.0,16.3,30.63,NNE,17,0.0,2.0,24,0.00,,,0.00,Wunderground v.1.15,2013-02-16 04:30:00,
2013-02-15 20:35:00,51.3,15.7,30.63,NNE,17,0.0,2.0,24,0.00,,,0.00,Wunderground v.1.15,2013-02-16 04:35:00,
2013-02-15 20:40:00,50.7,16.1,30.63,NNE,17,0.0,0.0,25,0.00,,,0.00,Wunderground v.1.15,2013-02-16 04:40:00,
2013-02-15 20:45:00,50.5,15.9,30.63,NNE,17,0.0,0.0,25,0.00,,,0.00,Wunderground v.1.15,2013-02-16 04:45:00,
2013-02-15 20:55:00,51.2,16.5,30.64,NNE,17,0.0,0.0,25,0.00,,,0.00,Wunderground v.1.15,2013-02-16 04:55:00,
2013-02-15 21:00:00,51.6,15.9,30.64,NNE,17,0.0,0.0,24,0.00,,,0.00,Wunderground v.1.15,2013-02-16 05:00:00,
2013-02-15 21:05:00,51.3,16.6,30.64,NNE,17,0.0,1.0,25,0.00,,,0.00,Wunderground v.1.15,2013-02-16 05:05:00,
2013-02-15 21:10:00,50.5,15.9,30.64,NNE,19,1.0,1.0,25,0.00,,,0.00,Wunderground v.1.15,2013-02-16 05:10:00,
2013-02-15 21:15:00,49.9,16.3,30.64,NNE,25,1.0,3.0,26,0.00,,,0.00,Wunderground v.1.15,2013-02-16 05:15:00,
2013-02-15 21:20:00,49.7,16.2,30.63,NE,41,1.0,3.0,26,0.00,,,0.00,Wunderground v.1.15,2013-02-16 05:20:00,
2013-02-15 21:25:00,49.9,16.3,30.64,NE,46,2.0,3.0,26,0.00,,,0.00,Wunderground v.1.15,2013-02-16 05:25:00,
2013-02-15 21:30:00,49.7,16.2,30.64,NE,46,2.0,4.0,26,0.00,,,0.00,Wunderground v.1.15,2013-02-16 05:30:00,
2013-02-15 21:35:00,49.6,16.1,30.64,NE,46,1.0,5.0,26,0.00,,,0.00,Wunderground v.1.15,2013-02-16 05:35:00,
2013-02-15 21:40:00,49.2,16.6,30.64,NE,52,2.0,2.0,27,0.00,,,0.00,Wunderground v.1.15,2013-02-16 05:40:00,
2013-02-15 21:50:00,48.7,16.2,30.64,NE,52,0.0,5.0,27,0.00,,,0.00,Wunderground v.1.15,2013-02-16 05:50:00,
2013-02-15 22:00:00,47.6,16.1,30.64,NE,52,3.0,5.0,28,0.00,,,0.00,Wunderground v.1.15,2013-02-16 06:00:00,
2013-02-15 22:05:00,47.5,16.8,30.64,ENE,72,4.0,8.0,29,0.00,,,0.00,Wunderground v.1.15,2013-02-16 06:05:00,
2013-02-15 22:10:00,47.5,16.8,30.64,ENE,72,3.0,3.0,29,0.00,,,0.00,Wunderground v.1.15,2013-02-16 06:10:00,
2013-02-15 22:20:00,47.6,16.9,30.64,ENE,72,1.0,8.0,29,0.00,,,0.00,Wunderground v.1.15,2013-02-16 06:20:00,
2013-02-15 22:30:00,48.1,16.5,30.64,ENE,72,3.0,8.0,28,0.00,,,0.00,Wunderground v.1.15,2013-02-16 06:30:00,
2013-02-15 22:35:00,47.8,16.2,30.64,ENE,72,4.0,8.0,28,0.00,,,0.00,Wunderground v.1.15,2013-02-16 06:35:00,
2013-02-15 22:45:00,47.7,16.1,30.64,ENE,72,2.0,6.0,28,0.00,,,0.00,Wunderground v.1.15,2013-02-16 06:45:00,
2013-02-15 22:50:00,47.4,15.9,30.64,ENE,72,2.0,6.0,28,0.00,,,0.00,Wunderground v.1.15,2013-02-16 06:50:00,
2013-02-15 23:00:00,47.1,16.4,30.64,ENE,72,3.0,6.0,29,0.00,,,0.00,Wunderground v.1.15,2013-02-16 07:00:00,
2013-02-15 23:05:00,47.6,16.9,30.64,ENE,72,3.0,6.0,29,0.00,,,0.00,Wunderground v.1.15,2013-02-16 07:05:00,
2013-02-15 23:15:00,47.3,16.6,30.64,ENE,74,4.0,6.0,29,0.00,,,0.00,Wunderground v.1.15,2013-02-16 07:15:00,
2013-02-15 23:20:00,47.0,16.3,30.64,East,84,4.0,4.0,29,0.00,,,0.00,Wunderground v.1.15,2013-02-16 07:20:00,
2013-02-15 23:30:00,46.8,16.2,30.64,East,84,5.0,5.0,29,0.00,,,0.00,Wunderground v.1.15,2013-02-16 07:30:00,
2013-02-15 23:35:00,46.7,16.1,30.64,East,84,5.0,9.0,29,0.00,,,0.00,Wunderground v.1.15,2013-02-16 07:35:00,
2013-02-15 23:45:00,47.6,16.1,30.64,East,84,4.0,9.0,28,0.00,,,0.00,Wunderground v.1.15,2013-02-16 07:45:00,
2013-02-15 23:50:00,47.5,16.0,30.64,East,84,4.0,9.0,28,0.00,,,0.00,Wunderground v.1.15,2013-02-16 07:50:00,